sensor_id;sensor_type;location;lat;lon;timestamp;P1;durP1;ratioP1;P2;durP2;ratioP2
66380;SDS011;53177;52.648;1.214;2022-12-20T00:01:50;14.57;;;4.57;;
66380;SDS011;53177;52.648;1.214;2022-12-20T00:04:15;17.33;;;5.20;;
66380;SDS011;53177;52.648;1.214;2022-12-20T00:06:41;15.30;;;4.10;;
66380;SDS011;53177;52.648;1.214;2022-12-20T00:09:06;15.07;;;4.05;;
66380;SDS011;53177;52.648;1.214;2022-12-20T00:11:33;16.63;;;3.93;;
66380;SDS011;53177;52.648;1.214;2022-12-20T00:14:00;12.10;;;3.72;;
66380;SDS011;53177;52.648;1.214;2022-12-20T00:16:26;14.88;;;3.85;;
66380;SDS011;53177;52.648;1.214;2022-12-20T00:18:57;18.20;;;3.97;;
66380;SDS011;53177;52.648;1.214;2022-12-20T00:21:25;13.93;;;4.18;;
66380;SDS011;53177;52.648;1.214;2022-12-20T00:23:51;18.30;;;4.10;;
66380;SDS011;53177;52.648;1.214;2022-12-20T00:26:18;12.40;;;3.78;;
66380;SDS011;53177;52.648;1.214;2022-12-20T00:28:45;15.23;;;4.00;;
66380;SDS011;53177;52.648;1.214;2022-12-20T00:31:12;14.97;;;3.90;;
66380;SDS011;53177;52.648;1.214;2022-12-20T00:33:39;13.80;;;3.63;;
66380;SDS011;53177;52.648;1.214;2022-12-20T00:36:06;14.18;;;3.70;;
66380;SDS011;53177;52.648;1.214;2022-12-20T00:38:32;13.40;;;3.47;;
66380;SDS011;53177;52.648;1.214;2022-12-20T00:43:33;14.00;;;4.67;;
66380;SDS011;53177;52.648;1.214;2022-12-20T00:45:59;13.13;;;3.40;;
66380;SDS011;53177;52.648;1.214;2022-12-20T00:48:25;13.10;;;3.30;;
66380;SDS011;53177;52.648;1.214;2022-12-20T00:50:51;11.50;;;3.80;;
66380;SDS011;53177;52.648;1.214;2022-12-20T00:53:17;16.63;;;3.60;;
66380;SDS011;53177;52.648;1.214;2022-12-20T00:55:43;13.85;;;3.60;;
66380;SDS011;53177;52.648;1.214;2022-12-20T00:58:10;13.93;;;3.42;;
66380;SDS011;53177;52.648;1.214;2022-12-20T01:00:37;12.13;;;4.10;;
66380;SDS011;53177;52.648;1.214;2022-12-20T01:03:03;17.42;;;3.80;;
66380;SDS011;53177;52.648;1.214;2022-12-20T01:05:29;14.05;;;3.53;;
66380;SDS011;53177;52.648;1.214;2022-12-20T01:07:55;12.30;;;3.60;;
66380;SDS011;53177;52.648;1.214;2022-12-20T01:10:21;12.00;;;3.57;;
66380;SDS011;53177;52.648;1.214;2022-12-20T01:12:47;11.77;;;3.40;;
66380;SDS011;53177;52.648;1.214;2022-12-20T01:15:12;17.47;;;3.60;;
66380;SDS011;53177;52.648;1.214;2022-12-20T01:17:38;12.27;;;3.35;;
66380;SDS011;53177;52.648;1.214;2022-12-20T01:20:03;13.30;;;3.70;;
66380;SDS011;53177;52.648;1.214;2022-12-20T01:22:31;14.20;;;4.05;;
66380;SDS011;53177;52.648;1.214;2022-12-20T01:24:57;13.33;;;3.30;;
66380;SDS011;53177;52.648;1.214;2022-12-20T01:27:22;13.40;;;3.57;;
66380;SDS011;53177;52.648;1.214;2022-12-20T01:29:48;13.95;;;3.90;;
66380;SDS011;53177;52.648;1.214;2022-12-20T01:32:14;11.17;;;3.37;;
66380;SDS011;53177;52.648;1.214;2022-12-20T01:34:39;16.85;;;3.45;;
66380;SDS011;53177;52.648;1.214;2022-12-20T01:37:05;12.57;;;3.50;;
66380;SDS011;53177;52.648;1.214;2022-12-20T01:39:30;13.43;;;3.40;;
66380;SDS011;53177;52.648;1.214;2022-12-20T01:41:56;12.10;;;3.20;;
66380;SDS011;53177;52.648;1.214;2022-12-20T01:46:47;16.20;;;3.47;;
66380;SDS011;53177;52.648;1.214;2022-12-20T01:49:21;12.83;;;3.17;;
66380;SDS011;53177;52.648;1.214;2022-12-20T01:52:19;9.88;;;2.83;;
66380;SDS011;53177;52.648;1.214;2022-12-20T01:54:53;12.23;;;3.10;;
66380;SDS011;53177;52.648;1.214;2022-12-20T01:57:45;14.07;;;3.30;;
66380;SDS011;53177;52.648;1.214;2022-12-20T02:00:16;7.93;;;2.83;;
66380;SDS011;53177;52.648;1.214;2022-12-20T02:02:44;10.60;;;2.87;;
66380;SDS011;53177;52.648;1.214;2022-12-20T02:05:11;11.88;;;3.13;;
66380;SDS011;53177;52.648;1.214;2022-12-20T02:07:38;14.55;;;2.83;;
66380;SDS011;53177;52.648;1.214;2022-12-20T02:10:06;9.30;;;2.90;;
66380;SDS011;53177;52.648;1.214;2022-12-20T02:23:06;9.38;;;2.78;;
66380;SDS011;53177;52.648;1.214;2022-12-20T02:31:38;9.63;;;2.72;;
66380;SDS011;53177;52.648;1.214;2022-12-20T02:34:12;8.50;;;2.70;;
66380;SDS011;53177;52.648;1.214;2022-12-20T02:36:39;8.30;;;2.33;;
66380;SDS011;53177;52.648;1.214;2022-12-20T02:39:04;10.50;;;2.60;;
66380;SDS011;53177;52.648;1.214;2022-12-20T02:41:34;10.30;;;2.57;;
66380;SDS011;53177;52.648;1.214;2022-12-20T02:44:05;11.27;;;2.65;;
66380;SDS011;53177;52.648;1.214;2022-12-20T02:46:52;10.15;;;2.85;;
66380;SDS011;53177;52.648;1.214;2022-12-20T02:49:22;13.73;;;3.10;;
66380;SDS011;53177;52.648;1.214;2022-12-20T02:51:53;8.03;;;2.90;;
66380;SDS011;53177;52.648;1.214;2022-12-20T02:54:21;12.75;;;3.00;;
66380;SDS011;53177;52.648;1.214;2022-12-20T02:57:01;9.85;;;2.90;;
66380;SDS011;53177;52.648;1.214;2022-12-20T02:59:36;14.00;;;3.08;;
66380;SDS011;53177;52.648;1.214;2022-12-20T03:02:10;13.30;;;3.10;;
66380;SDS011;53177;52.648;1.214;2022-12-20T03:04:37;12.00;;;3.10;;
66380;SDS011;53177;52.648;1.214;2022-12-20T03:07:05;9.60;;;2.60;;
66380;SDS011;53177;52.648;1.214;2022-12-20T03:09:33;10.07;;;3.00;;
66380;SDS011;53177;52.648;1.214;2022-12-20T03:12:00;12.02;;;3.03;;
66380;SDS011;53177;52.648;1.214;2022-12-20T03:14:26;10.50;;;3.00;;
66380;SDS011;53177;52.648;1.214;2022-12-20T03:16:52;12.13;;;3.10;;
66380;SDS011;53177;52.648;1.214;2022-12-20T03:19:17;11.10;;;3.23;;
66380;SDS011;53177;52.648;1.214;2022-12-20T03:21:43;11.48;;;2.85;;
66380;SDS011;53177;52.648;1.214;2022-12-20T03:24:08;12.27;;;4.15;;
66380;SDS011;53177;52.648;1.214;2022-12-20T03:26:35;10.60;;;3.20;;
66380;SDS011;53177;52.648;1.214;2022-12-20T03:29:01;10.73;;;3.13;;
66380;SDS011;53177;52.648;1.214;2022-12-20T03:31:28;9.75;;;2.78;;
66380;SDS011;53177;52.648;1.214;2022-12-20T03:33:53;11.73;;;3.13;;
66380;SDS011;53177;52.648;1.214;2022-12-20T03:36:19;9.85;;;2.80;;
66380;SDS011;53177;52.648;1.214;2022-12-20T03:38:47;9.73;;;2.95;;
66380;SDS011;53177;52.648;1.214;2022-12-20T03:41:16;11.27;;;2.80;;
66380;SDS011;53177;52.648;1.214;2022-12-20T03:43:41;12.43;;;3.00;;
66380;SDS011;53177;52.648;1.214;2022-12-20T03:46:07;11.90;;;2.70;;
66380;SDS011;53177;52.648;1.214;2022-12-20T03:48:32;11.15;;;2.53;;
66380;SDS011;53177;52.648;1.214;2022-12-20T03:50:58;7.78;;;2.35;;
66380;SDS011;53177;52.648;1.214;2022-12-20T03:53:23;11.83;;;3.20;;
66380;SDS011;53177;52.648;1.214;2022-12-20T03:55:48;8.00;;;2.70;;
66380;SDS011;53177;52.648;1.214;2022-12-20T03:58:14;9.47;;;3.00;;
66380;SDS011;53177;52.648;1.214;2022-12-20T04:00:39;10.70;;;2.65;;
66380;SDS011;53177;52.648;1.214;2022-12-20T04:03:05;11.63;;;3.10;;
66380;SDS011;53177;52.648;1.214;2022-12-20T04:05:30;14.70;;;2.90;;
66380;SDS011;53177;52.648;1.214;2022-12-20T04:07:56;9.43;;;2.80;;
66380;SDS011;53177;52.648;1.214;2022-12-20T04:10:22;12.87;;;2.87;;
66380;SDS011;53177;52.648;1.214;2022-12-20T04:12:47;10.70;;;3.28;;
66380;SDS011;53177;52.648;1.214;2022-12-20T04:15:13;12.02;;;3.33;;
66380;SDS011;53177;52.648;1.214;2022-12-20T04:17:38;12.20;;;3.50;;
66380;SDS011;53177;52.648;1.214;2022-12-20T04:20:04;15.77;;;4.10;;
66380;SDS011;53177;52.648;1.214;2022-12-20T04:22:46;10.20;;;3.42;;
66380;SDS011;53177;52.648;1.214;2022-12-20T04:25:12;8.65;;;3.40;;
66380;SDS011;53177;52.648;1.214;2022-12-20T04:27:39;11.45;;;3.70;;
66380;SDS011;53177;52.648;1.214;2022-12-20T04:30:05;11.63;;;4.15;;
66380;SDS011;53177;52.648;1.214;2022-12-20T04:32:31;12.35;;;4.05;;
66380;SDS011;53177;52.648;1.214;2022-12-20T04:34:57;13.43;;;4.03;;
66380;SDS011;53177;52.648;1.214;2022-12-20T04:37:22;13.85;;;4.50;;
66380;SDS011;53177;52.648;1.214;2022-12-20T04:39:47;14.83;;;4.10;;
66380;SDS011;53177;52.648;1.214;2022-12-20T04:42:13;9.37;;;4.00;;
66380;SDS011;53177;52.648;1.214;2022-12-20T04:44:38;10.10;;;4.33;;
66380;SDS011;53177;52.648;1.214;2022-12-20T04:47:04;17.95;;;4.13;;
66380;SDS011;53177;52.648;1.214;2022-12-20T04:49:29;13.87;;;4.40;;
66380;SDS011;53177;52.648;1.214;2022-12-20T04:51:55;12.30;;;4.27;;
66380;SDS011;53177;52.648;1.214;2022-12-20T04:54:40;7.43;;;3.70;;
66380;SDS011;53177;52.648;1.214;2022-12-20T04:57:05;13.83;;;4.57;;
66380;SDS011;53177;52.648;1.214;2022-12-20T04:59:33;12.88;;;4.43;;
66380;SDS011;53177;52.648;1.214;2022-12-20T05:01:59;12.23;;;4.27;;
66380;SDS011;53177;52.648;1.214;2022-12-20T05:04:25;10.32;;;3.72;;
66380;SDS011;53177;52.648;1.214;2022-12-20T05:06:50;14.87;;;4.27;;
66380;SDS011;53177;52.648;1.214;2022-12-20T05:09:16;11.13;;;4.70;;
66380;SDS011;53177;52.648;1.214;2022-12-20T05:11:41;11.73;;;4.10;;
66380;SDS011;53177;52.648;1.214;2022-12-20T05:14:07;12.63;;;4.67;;
66380;SDS011;53177;52.648;1.214;2022-12-20T05:16:32;11.50;;;4.80;;
66380;SDS011;53177;52.648;1.214;2022-12-20T05:18:58;14.40;;;4.53;;
66380;SDS011;53177;52.648;1.214;2022-12-20T05:21:23;15.70;;;4.60;;
66380;SDS011;53177;52.648;1.214;2022-12-20T05:24:08;9.93;;;4.50;;
66380;SDS011;53177;52.648;1.214;2022-12-20T05:26:52;15.20;;;5.35;;
66380;SDS011;53177;52.648;1.214;2022-12-20T05:29:18;11.20;;;4.95;;
66380;SDS011;53177;52.648;1.214;2022-12-20T05:31:44;14.30;;;4.80;;
66380;SDS011;53177;52.648;1.214;2022-12-20T05:34:09;13.60;;;5.00;;
66380;SDS011;53177;52.648;1.214;2022-12-20T05:36:34;14.83;;;5.27;;
66380;SDS011;53177;52.648;1.214;2022-12-20T05:39:00;13.02;;;4.53;;
66380;SDS011;53177;52.648;1.214;2022-12-20T05:41:25;14.07;;;4.30;;
66380;SDS011;53177;52.648;1.214;2022-12-20T05:43:51;12.90;;;4.93;;
66380;SDS011;53177;52.648;1.214;2022-12-20T05:46:16;17.60;;;4.50;;
66380;SDS011;53177;52.648;1.214;2022-12-20T05:48:42;12.23;;;4.07;;
66380;SDS011;53177;52.648;1.214;2022-12-20T05:51:07;14.18;;;4.15;;
66380;SDS011;53177;52.648;1.214;2022-12-20T05:53:33;11.20;;;4.23;;
66380;SDS011;53177;52.648;1.214;2022-12-20T05:55:58;13.35;;;4.55;;
66380;SDS011;53177;52.648;1.214;2022-12-20T05:58:25;13.63;;;4.90;;
66380;SDS011;53177;52.648;1.214;2022-12-20T06:00:51;14.65;;;4.00;;
66380;SDS011;53177;52.648;1.214;2022-12-20T06:03:17;11.98;;;4.07;;
66380;SDS011;53177;52.648;1.214;2022-12-20T06:05:42;16.05;;;4.45;;
66380;SDS011;53177;52.648;1.214;2022-12-20T06:08:11;14.05;;;4.03;;
66380;SDS011;53177;52.648;1.214;2022-12-20T06:10:38;14.15;;;4.45;;
66380;SDS011;53177;52.648;1.214;2022-12-20T06:13:06;12.80;;;3.90;;
66380;SDS011;53177;52.648;1.214;2022-12-20T06:15:32;13.68;;;4.13;;
66380;SDS011;53177;52.648;1.214;2022-12-20T06:17:58;12.63;;;3.75;;
66380;SDS011;53177;52.648;1.214;2022-12-20T06:20:24;13.15;;;4.25;;
66380;SDS011;53177;52.648;1.214;2022-12-20T06:22:50;13.85;;;4.13;;
66380;SDS011;53177;52.648;1.214;2022-12-20T06:25:16;11.75;;;4.05;;
66380;SDS011;53177;52.648;1.214;2022-12-20T06:27:42;10.23;;;3.58;;
66380;SDS011;53177;52.648;1.214;2022-12-20T06:30:08;16.17;;;4.20;;
66380;SDS011;53177;52.648;1.214;2022-12-20T06:32:34;16.10;;;4.85;;
66380;SDS011;53177;52.648;1.214;2022-12-20T06:34:59;13.43;;;4.70;;
66380;SDS011;53177;52.648;1.214;2022-12-20T06:37:25;13.80;;;4.50;;
66380;SDS011;53177;52.648;1.214;2022-12-20T06:39:50;11.85;;;4.57;;
66380;SDS011;53177;52.648;1.214;2022-12-20T06:42:16;14.87;;;4.30;;
66380;SDS011;53177;52.648;1.214;2022-12-20T06:44:41;14.43;;;4.60;;
66380;SDS011;53177;52.648;1.214;2022-12-20T06:47:06;18.80;;;4.83;;
66380;SDS011;53177;52.648;1.214;2022-12-20T06:49:32;15.63;;;5.03;;
66380;SDS011;53177;52.648;1.214;2022-12-20T06:51:57;15.27;;;4.47;;
66380;SDS011;53177;52.648;1.214;2022-12-20T06:54:23;16.70;;;4.80;;
66380;SDS011;53177;52.648;1.214;2022-12-20T06:56:48;12.77;;;5.03;;
66380;SDS011;53177;52.648;1.214;2022-12-20T06:59:14;15.03;;;4.60;;
66380;SDS011;53177;52.648;1.214;2022-12-20T07:01:39;11.57;;;4.70;;
66380;SDS011;53177;52.648;1.214;2022-12-20T07:04:05;17.17;;;4.80;;
66380;SDS011;53177;52.648;1.214;2022-12-20T07:06:30;13.73;;;5.00;;
66380;SDS011;53177;52.648;1.214;2022-12-20T07:08:56;16.65;;;5.60;;
66380;SDS011;53177;52.648;1.214;2022-12-20T07:11:21;16.70;;;5.20;;
66380;SDS011;53177;52.648;1.214;2022-12-20T07:13:47;15.23;;;5.83;;
66380;SDS011;53177;52.648;1.214;2022-12-20T07:16:14;15.73;;;5.43;;
66380;SDS011;53177;52.648;1.214;2022-12-20T07:18:39;14.37;;;5.07;;
66380;SDS011;53177;52.648;1.214;2022-12-20T07:21:05;12.47;;;5.00;;
66380;SDS011;53177;52.648;1.214;2022-12-20T07:23:30;14.52;;;5.15;;
66380;SDS011;53177;52.648;1.214;2022-12-20T07:25:56;14.50;;;5.20;;
66380;SDS011;53177;52.648;1.214;2022-12-20T07:28:24;17.13;;;5.47;;
66380;SDS011;53177;52.648;1.214;2022-12-20T07:30:53;14.73;;;6.07;;
66380;SDS011;53177;52.648;1.214;2022-12-20T07:33:19;13.82;;;4.68;;
66380;SDS011;53177;52.648;1.214;2022-12-20T07:35:44;16.77;;;4.93;;
66380;SDS011;53177;52.648;1.214;2022-12-20T07:38:13;16.77;;;4.97;;
66380;SDS011;53177;52.648;1.214;2022-12-20T07:40:39;14.63;;;5.22;;
66380;SDS011;53177;52.648;1.214;2022-12-20T07:43:06;12.30;;;4.27;;
66380;SDS011;53177;52.648;1.214;2022-12-20T07:45:31;16.48;;;6.00;;
66380;SDS011;53177;52.648;1.214;2022-12-20T07:47:57;15.65;;;4.60;;
66380;SDS011;53177;52.648;1.214;2022-12-20T07:50:24;13.10;;;5.05;;
66380;SDS011;53177;52.648;1.214;2022-12-20T07:52:52;15.52;;;4.75;;
66380;SDS011;53177;52.648;1.214;2022-12-20T07:55:18;5.53;;;1.80;;
66380;SDS011;53177;52.648;1.214;2022-12-20T07:57:49;7.55;;;2.38;;
66380;SDS011;53177;52.648;1.214;2022-12-20T08:00:21;4.38;;;1.20;;
66380;SDS011;53177;52.648;1.214;2022-12-20T08:02:55;2.83;;;0.77;;
66380;SDS011;53177;52.648;1.214;2022-12-20T08:05:25;5.60;;;0.80;;
66380;SDS011;53177;52.648;1.214;2022-12-20T08:07:51;3.05;;;0.52;;
66380;SDS011;53177;52.648;1.214;2022-12-20T08:10:20;1.50;;;0.40;;
66380;SDS011;53177;52.648;1.214;2022-12-20T08:12:47;2.92;;;0.50;;
66380;SDS011;53177;52.648;1.214;2022-12-20T08:15:13;3.33;;;0.90;;
66380;SDS011;53177;52.648;1.214;2022-12-20T08:17:39;5.00;;;0.63;;
66380;SDS011;53177;52.648;1.214;2022-12-20T08:20:04;3.60;;;0.90;;
66380;SDS011;53177;52.648;1.214;2022-12-20T08:22:33;3.55;;;0.70;;
66380;SDS011;53177;52.648;1.214;2022-12-20T08:25:03;3.90;;;0.88;;
66380;SDS011;53177;52.648;1.214;2022-12-20T08:27:31;7.15;;;1.05;;
66380;SDS011;53177;52.648;1.214;2022-12-20T08:29:57;6.17;;;1.30;;
66380;SDS011;53177;52.648;1.214;2022-12-20T08:32:24;5.07;;;1.10;;
66380;SDS011;53177;52.648;1.214;2022-12-20T08:34:49;6.05;;;1.10;;
66380;SDS011;53177;52.648;1.214;2022-12-20T08:37:16;6.10;;;1.58;;
66380;SDS011;53177;52.648;1.214;2022-12-20T08:39:42;4.97;;;1.30;;
66380;SDS011;53177;52.648;1.214;2022-12-20T08:42:08;5.20;;;1.30;;
66380;SDS011;53177;52.648;1.214;2022-12-20T08:44:33;5.07;;;1.58;;
66380;SDS011;53177;52.648;1.214;2022-12-20T08:46:59;5.03;;;1.60;;
66380;SDS011;53177;52.648;1.214;2022-12-20T08:49:24;7.73;;;1.33;;
66380;SDS011;53177;52.648;1.214;2022-12-20T08:51:50;7.03;;;1.70;;
66380;SDS011;53177;52.648;1.214;2022-12-20T08:54:15;5.47;;;1.50;;
66380;SDS011;53177;52.648;1.214;2022-12-20T08:56:41;5.40;;;1.58;;
66380;SDS011;53177;52.648;1.214;2022-12-20T08:59:07;6.68;;;1.83;;
66380;SDS011;53177;52.648;1.214;2022-12-20T09:01:32;4.90;;;1.47;;
66380;SDS011;53177;52.648;1.214;2022-12-20T09:03:58;5.93;;;1.83;;
66380;SDS011;53177;52.648;1.214;2022-12-20T09:06:24;4.53;;;1.70;;
66380;SDS011;53177;52.648;1.214;2022-12-20T09:08:50;6.43;;;2.38;;
66380;SDS011;53177;52.648;1.214;2022-12-20T09:11:17;16.33;;;8.43;;
66380;SDS011;53177;52.648;1.214;2022-12-20T09:13:44;20.83;;;10.77;;
66380;SDS011;53177;52.648;1.214;2022-12-20T09:16:13;17.98;;;7.82;;
66380;SDS011;53177;52.648;1.214;2022-12-20T09:18:41;11.23;;;4.38;;
66380;SDS011;53177;52.648;1.214;2022-12-20T09:21:07;6.88;;;2.50;;
66380;SDS011;53177;52.648;1.214;2022-12-20T09:23:35;6.55;;;2.22;;
66380;SDS011;53177;52.648;1.214;2022-12-20T09:26:02;5.83;;;1.40;;
66380;SDS011;53177;52.648;1.214;2022-12-20T09:28:29;7.65;;;1.70;;
66380;SDS011;53177;52.648;1.214;2022-12-20T09:30:59;6.60;;;1.67;;
66380;SDS011;53177;52.648;1.214;2022-12-20T09:33:25;6.88;;;1.75;;
66380;SDS011;53177;52.648;1.214;2022-12-20T09:35:52;8.25;;;3.15;;
66380;SDS011;53177;52.648;1.214;2022-12-20T09:38:18;7.07;;;2.77;;
66380;SDS011;53177;52.648;1.214;2022-12-20T09:40:44;5.37;;;1.53;;
66380;SDS011;53177;52.648;1.214;2022-12-20T09:43:13;4.40;;;1.23;;
66380;SDS011;53177;52.648;1.214;2022-12-20T09:45:40;7.18;;;1.90;;
66380;SDS011;53177;52.648;1.214;2022-12-20T09:48:12;9.38;;;2.10;;
66380;SDS011;53177;52.648;1.214;2022-12-20T09:50:48;6.63;;;2.20;;
66380;SDS011;53177;52.648;1.214;2022-12-20T09:55:52;12.10;;;3.28;;
66380;SDS011;53177;52.648;1.214;2022-12-20T10:01:16;8.80;;;4.03;;
66380;SDS011;53177;52.648;1.214;2022-12-20T10:03:48;8.35;;;3.28;;
66380;SDS011;53177;52.648;1.214;2022-12-20T10:08:56;7.00;;;2.00;;
66380;SDS011;53177;52.648;1.214;2022-12-20T10:11:39;5.65;;;1.70;;
66380;SDS011;53177;52.648;1.214;2022-12-20T10:16:52;6.93;;;1.77;;
66380;SDS011;53177;52.648;1.214;2022-12-20T10:22:28;5.35;;;1.85;;
66380;SDS011;53177;52.648;1.214;2022-12-20T10:25:10;6.00;;;1.70;;
66380;SDS011;53177;52.648;1.214;2022-12-20T10:27:44;5.20;;;1.75;;
66380;SDS011;53177;52.648;1.214;2022-12-20T10:30:13;8.63;;;2.38;;
66380;SDS011;53177;52.648;1.214;2022-12-20T10:32:44;7.88;;;2.40;;
66380;SDS011;53177;52.648;1.214;2022-12-20T10:37:59;7.53;;;2.33;;
66380;SDS011;53177;52.648;1.214;2022-12-20T10:40:29;8.25;;;2.22;;
66380;SDS011;53177;52.648;1.214;2022-12-20T10:42:58;9.73;;;3.00;;
66380;SDS011;53177;52.648;1.214;2022-12-20T10:45:32;6.22;;;1.85;;
66380;SDS011;53177;52.648;1.214;2022-12-20T10:48:05;7.40;;;2.00;;
66380;SDS011;53177;52.648;1.214;2022-12-20T10:51:00;6.50;;;2.00;;
66380;SDS011;53177;52.648;1.214;2022-12-20T10:53:52;9.05;;;2.17;;
66380;SDS011;53177;52.648;1.214;2022-12-20T10:56:27;7.82;;;1.80;;
66380;SDS011;53177;52.648;1.214;2022-12-20T10:58:59;8.60;;;2.08;;
66380;SDS011;53177;52.648;1.214;2022-12-20T11:01:34;8.10;;;1.10;;
66380;SDS011;53177;52.648;1.214;2022-12-20T11:04:02;8.43;;;2.30;;
66380;SDS011;53177;52.648;1.214;2022-12-20T11:06:45;7.32;;;1.83;;
66380;SDS011;53177;52.648;1.214;2022-12-20T11:09:13;8.33;;;2.10;;
66380;SDS011;53177;52.648;1.214;2022-12-20T11:12:06;6.88;;;2.20;;
66380;SDS011;53177;52.648;1.214;2022-12-20T11:14:40;8.50;;;1.90;;
66380;SDS011;53177;52.648;1.214;2022-12-20T11:19:52;8.53;;;2.37;;
66380;SDS011;53177;52.648;1.214;2022-12-20T11:22:35;7.50;;;2.30;;
66380;SDS011;53177;52.648;1.214;2022-12-20T11:30:52;7.05;;;1.50;;
66380;SDS011;53177;52.648;1.214;2022-12-20T11:41:47;7.47;;;1.63;;
66380;SDS011;53177;52.648;1.214;2022-12-20T11:47:32;6.47;;;1.10;;
66380;SDS011;53177;52.648;1.214;2022-12-20T11:50:08;5.65;;;1.10;;
66380;SDS011;53177;52.648;1.214;2022-12-20T11:55:45;7.00;;;1.30;;
66380;SDS011;53177;52.648;1.214;2022-12-20T12:01:06;8.30;;;1.70;;
66380;SDS011;53177;52.648;1.214;2022-12-20T12:03:38;9.32;;;1.38;;
66380;SDS011;53177;52.648;1.214;2022-12-20T12:06:09;6.32;;;1.00;;
66380;SDS011;53177;52.648;1.214;2022-12-20T12:11:30;6.93;;;1.08;;
66380;SDS011;53177;52.648;1.214;2022-12-20T12:13:59;6.77;;;1.00;;
66380;SDS011;53177;52.648;1.214;2022-12-20T12:16:33;7.30;;;1.17;;
66380;SDS011;53177;52.648;1.214;2022-12-20T12:19:01;12.45;;;2.90;;
66380;SDS011;53177;52.648;1.214;2022-12-20T12:21:30;10.07;;;2.35;;
66380;SDS011;53177;52.648;1.214;2022-12-20T12:26:54;6.50;;;2.10;;
66380;SDS011;53177;52.648;1.214;2022-12-20T12:29:22;16.17;;;3.97;;
66380;SDS011;53177;52.648;1.214;2022-12-20T12:34:29;7.40;;;2.17;;
66380;SDS011;53177;52.648;1.214;2022-12-20T12:40:02;7.15;;;1.67;;
66380;SDS011;53177;52.648;1.214;2022-12-20T12:42:36;6.97;;;1.70;;
66380;SDS011;53177;52.648;1.214;2022-12-20T12:45:19;9.00;;;1.90;;
66380;SDS011;53177;52.648;1.214;2022-12-20T12:48:06;7.47;;;1.30;;
66380;SDS011;53177;52.648;1.214;2022-12-20T12:50:36;6.30;;;1.30;;
66380;SDS011;53177;52.648;1.214;2022-12-20T12:53:07;11.32;;;1.63;;
66380;SDS011;53177;52.648;1.214;2022-12-20T12:55:46;6.40;;;1.10;;
66380;SDS011;53177;52.648;1.214;2022-12-20T12:58:13;10.33;;;1.50;;
66380;SDS011;53177;52.648;1.214;2022-12-20T13:03:27;8.95;;;0.90;;
66380;SDS011;53177;52.648;1.214;2022-12-20T13:21:56;10.73;;;2.47;;
66380;SDS011;53177;52.648;1.214;2022-12-20T13:24:55;9.65;;;1.40;;
66380;SDS011;53177;52.648;1.214;2022-12-20T13:27:39;8.75;;;1.55;;
66380;SDS011;53177;52.648;1.214;2022-12-20T13:41:20;8.02;;;1.30;;
66380;SDS011;53177;52.648;1.214;2022-12-20T13:49:11;12.75;;;1.83;;
66380;SDS011;53177;52.648;1.214;2022-12-20T13:51:45;10.20;;;1.83;;
66380;SDS011;53177;52.648;1.214;2022-12-20T13:54:14;12.20;;;1.70;;
66380;SDS011;53177;52.648;1.214;2022-12-20T13:56:46;11.82;;;2.70;;
66380;SDS011;53177;52.648;1.214;2022-12-20T13:59:24;11.63;;;2.13;;
66380;SDS011;53177;52.648;1.214;2022-12-20T14:01:52;15.87;;;2.47;;
66380;SDS011;53177;52.648;1.214;2022-12-20T14:04:20;13.57;;;1.55;;
66380;SDS011;53177;52.648;1.214;2022-12-20T14:06:50;10.57;;;1.77;;
66380;SDS011;53177;52.648;1.214;2022-12-20T14:12:04;17.48;;;5.10;;
66380;SDS011;53177;52.648;1.214;2022-12-20T14:14:38;15.30;;;3.95;;
66380;SDS011;53177;52.648;1.214;2022-12-20T14:20:06;12.82;;;3.00;;
66380;SDS011;53177;52.648;1.214;2022-12-20T14:23:03;12.37;;;3.00;;
66380;SDS011;53177;52.648;1.214;2022-12-20T14:25:30;10.05;;;2.47;;
66380;SDS011;53177;52.648;1.214;2022-12-20T14:30:54;13.13;;;2.42;;
66380;SDS011;53177;52.648;1.214;2022-12-20T14:33:24;11.52;;;2.45;;
66380;SDS011;53177;52.648;1.214;2022-12-20T14:36:09;15.03;;;1.97;;
66380;SDS011;53177;52.648;1.214;2022-12-20T14:38:43;13.98;;;1.75;;
66380;SDS011;53177;52.648;1.214;2022-12-20T14:47:03;11.85;;;1.98;;
66380;SDS011;53177;52.648;1.214;2022-12-20T14:49:39;9.07;;;1.60;;
66380;SDS011;53177;52.648;1.214;2022-12-20T14:57:24;17.70;;;5.45;;
66380;SDS011;53177;52.648;1.214;2022-12-20T14:59:59;10.38;;;2.92;;
66380;SDS011;53177;52.648;1.214;2022-12-20T15:02:33;15.10;;;4.47;;
66380;SDS011;53177;52.648;1.214;2022-12-20T15:08:24;15.48;;;3.40;;
66380;SDS011;53177;52.648;1.214;2022-12-20T15:13:40;16.00;;;3.10;;
66380;SDS011;53177;52.648;1.214;2022-12-20T15:16:18;12.50;;;2.60;;
66380;SDS011;53177;52.648;1.214;2022-12-20T15:18:49;14.43;;;2.92;;
66380;SDS011;53177;52.648;1.214;2022-12-20T15:21:22;15.27;;;2.50;;
66380;SDS011;53177;52.648;1.214;2022-12-20T15:23:56;16.08;;;2.90;;
66380;SDS011;53177;52.648;1.214;2022-12-20T15:26:24;19.92;;;3.35;;
66380;SDS011;53177;52.648;1.214;2022-12-20T15:28:51;14.27;;;2.73;;
66380;SDS011;53177;52.648;1.214;2022-12-20T15:31:18;13.18;;;2.00;;
66380;SDS011;53177;52.648;1.214;2022-12-20T15:33:45;13.40;;;2.20;;
66380;SDS011;53177;52.648;1.214;2022-12-20T15:36:21;10.73;;;1.98;;
66380;SDS011;53177;52.648;1.214;2022-12-20T15:38:48;15.73;;;2.33;;
66380;SDS011;53177;52.648;1.214;2022-12-20T15:41:27;16.50;;;2.40;;
66380;SDS011;53177;52.648;1.214;2022-12-20T15:43:56;13.73;;;2.63;;
66380;SDS011;53177;52.648;1.214;2022-12-20T15:46:24;13.73;;;2.20;;
66380;SDS011;53177;52.648;1.214;2022-12-20T15:48:51;10.90;;;2.20;;
66380;SDS011;53177;52.648;1.214;2022-12-20T15:53:57;16.63;;;2.33;;
66380;SDS011;53177;52.648;1.214;2022-12-20T15:56:24;14.05;;;2.60;;
66380;SDS011;53177;52.648;1.214;2022-12-20T15:58:51;17.33;;;3.20;;
66380;SDS011;53177;52.648;1.214;2022-12-20T16:01:30;20.08;;;3.42;;
66380;SDS011;53177;52.648;1.214;2022-12-20T16:04:00;14.40;;;2.85;;
66380;SDS011;53177;52.648;1.214;2022-12-20T16:06:25;18.90;;;3.73;;
66380;SDS011;53177;52.648;1.214;2022-12-20T16:08:51;14.97;;;3.30;;
66380;SDS011;53177;52.648;1.214;2022-12-20T16:11:23;18.67;;;4.82;;
66380;SDS011;53177;52.648;1.214;2022-12-20T16:13:51;17.88;;;3.83;;
66380;SDS011;53177;52.648;1.214;2022-12-20T16:16:19;17.20;;;4.60;;
66380;SDS011;53177;52.648;1.214;2022-12-20T16:18:46;15.82;;;3.78;;
66380;SDS011;53177;52.648;1.214;2022-12-20T16:21:15;15.20;;;3.00;;
66380;SDS011;53177;52.648;1.214;2022-12-20T16:23:42;13.35;;;2.70;;
66380;SDS011;53177;52.648;1.214;2022-12-20T16:26:11;20.13;;;3.17;;
66380;SDS011;53177;52.648;1.214;2022-12-20T16:28:41;16.17;;;2.55;;
66380;SDS011;53177;52.648;1.214;2022-12-20T16:31:11;16.00;;;2.50;;
66380;SDS011;53177;52.648;1.214;2022-12-20T16:33:46;16.45;;;2.95;;
66380;SDS011;53177;52.648;1.214;2022-12-20T16:36:12;16.03;;;3.17;;
66380;SDS011;53177;52.648;1.214;2022-12-20T16:38:38;19.90;;;2.83;;
66380;SDS011;53177;52.648;1.214;2022-12-20T16:41:11;14.05;;;2.90;;
66380;SDS011;53177;52.648;1.214;2022-12-20T16:43:40;15.95;;;2.85;;
66380;SDS011;53177;52.648;1.214;2022-12-20T16:46:07;13.80;;;2.50;;
66380;SDS011;53177;52.648;1.214;2022-12-20T16:48:37;12.02;;;1.80;;
66380;SDS011;53177;52.648;1.214;2022-12-20T16:51:03;14.43;;;2.83;;
66380;SDS011;53177;52.648;1.214;2022-12-20T16:53:36;14.65;;;2.63;;
66380;SDS011;53177;52.648;1.214;2022-12-20T16:56:02;17.75;;;2.65;;
66380;SDS011;53177;52.648;1.214;2022-12-20T16:58:27;13.73;;;2.80;;
66380;SDS011;53177;52.648;1.214;2022-12-20T17:00:53;21.87;;;3.50;;
66380;SDS011;53177;52.648;1.214;2022-12-20T17:03:18;21.23;;;3.77;;
66380;SDS011;53177;52.648;1.214;2022-12-20T17:05:44;18.40;;;3.40;;
66380;SDS011;53177;52.648;1.214;2022-12-20T17:08:09;15.52;;;3.00;;